地図

経路データ

SID SEASON NUMBER BASIN SUBBASIN NAME ISO_TIME NATURE LAT LON WMO_WIND WMO_PRES WMO_AGENCY TRACK_TYPE DIST2LAND LANDFALL IFLAG USA_AGENCY USA_ATCF_ID USA_LAT USA_LON USA_RECORD USA_STATUS USA_WIND USA_PRES USA_SSHS USA_R34_NE USA_R34_SE USA_R34_SW USA_R34_NW USA_R50_NE USA_R50_SE USA_R50_SW USA_R50_NW USA_R64_NE USA_R64_SE USA_R64_SW USA_R64_NW USA_POCI USA_ROCI USA_RMW USA_EYE TOKYO_LAT TOKYO_LON TOKYO_GRADE TOKYO_WIND TOKYO_PRES TOKYO_R50_DIR TOKYO_R50_LONG TOKYO_R50_SHORT TOKYO_R30_DIR TOKYO_R30_LONG TOKYO_R30_SHORT TOKYO_LAND CMA_LAT CMA_LON CMA_CAT CMA_WIND CMA_PRES HKO_LAT HKO_LON HKO_CAT HKO_WIND HKO_PRES NEWDELHI_LAT NEWDELHI_LON NEWDELHI_GRADE NEWDELHI_WIND NEWDELHI_PRES NEWDELHI_CI NEWDELHI_DP NEWDELHI_POCI REUNION_LAT REUNION_LON REUNION_TYPE REUNION_WIND REUNION_PRES REUNION_TNUM REUNION_CI REUNION_RMW REUNION_R34_NE REUNION_R34_SE REUNION_R34_SW REUNION_R34_NW REUNION_R50_NE REUNION_R50_SE REUNION_R50_SW REUNION_R50_NW REUNION_R64_NE REUNION_R64_SE REUNION_R64_SW REUNION_R64_NW BOM_LAT BOM_LON BOM_TYPE BOM_WIND BOM_PRES BOM_TNUM BOM_CI BOM_RMW BOM_R34_NE BOM_R34_SE BOM_R34_SW BOM_R34_NW BOM_R50_NE BOM_R50_SE BOM_R50_SW BOM_R50_NW BOM_R64_NE BOM_R64_SE BOM_R64_SW BOM_R64_NW BOM_ROCI BOM_POCI BOM_EYE BOM_POS_METHOD BOM_PRES_METHOD NADI_LAT NADI_LON NADI_CAT NADI_WIND NADI_PRES WELLINGTON_LAT WELLINGTON_LON WELLINGTON_WIND WELLINGTON_PRES DS824_LAT DS824_LON DS824_STAGE DS824_WIND DS824_PRES TD9636_LAT TD9636_LON TD9636_STAGE TD9636_WIND TD9636_PRES TD9635_LAT TD9635_LON TD9635_WIND TD9635_PRES TD9635_ROCI NEUMANN_LAT NEUMANN_LON NEUMANN_CLASS NEUMANN_WIND NEUMANN_PRES MLC_LAT MLC_LON MLC_CLASS MLC_WIND MLC_PRES USA_GUST BOM_GUST BOM_GUST_PER REUNION_GUST REUNION_GUST_PER USA_SEAHGT USA_SEARAD_NE USA_SEARAD_SE USA_SEARAD_SW USA_SEARAD_NW STORM_SPEED STORM_DIR
1908299N10074 1908 49 NI AS NOT_NAMED 1908-10-25 00:00:00 TS 9.70000 73.7000 main 270 270 _________O____ -1 9.70000 73.7000 TC 34 7 269
1908299N10074 1908 49 NI AS NOT_NAMED 1908-10-25 03:00:00 TS 9.69346 73.3283 main 310 310 _________PO___ -1 9.69019 73.1425 TC 36 9.70000 73.7000 2 9 270
1908299N10074 1908 49 NI AS NOT_NAMED 1908-10-25 06:00:00 TS 9.70595 72.8206 main 361 361 _________OP___ -1 9.70000 72.6000 TC 39 9.71487 73.1516 2 10 273
1908299N10074 1908 49 NI AS NOT_NAMED 1908-10-25 09:00:00 TS 9.73857 72.3111 main 408 408 _________PP___ -1 9.74242 72.0850 TC 42 9.73342 72.6125 2 10 274
1908299N10074 1908 49 NI AS NOT_NAMED 1908-10-25 12:00:00 TS 9.78012 71.8461 main 445 445 _________OP___ -1 9.80000 71.6000 TC 45 9.76024 72.0922 2 9 275
1908299N10074 1908 49 NI AS NOT_NAMED 1908-10-25 15:00:00 TS 9.82121 71.3712 main 482 482 _________PO___ -1 9.84241 71.1424 TC 45 9.80000 71.6000 3 9 276
1908299N10074 1908 49 NI AS NOT_NAMED 1908-10-25 18:00:00 TS 9.87806 70.9203 main 525 525 _________OP___ -1 9.90000 70.7000 TC 45 9.85612 71.1406 3 9 279
1908299N10074 1908 49 NI AS NOT_NAMED 1908-10-25 21:00:00 TS 9.95963 70.4825 main 559 559 _________PP___ -1 9.99237 70.2650 TC 45 9.92688 70.6999 3 9 281
1908299N10074 1908 49 NI AS NOT_NAMED 1908-10-26 00:00:00 TS 10.0546 70.0296 main 603 603 _________OP___ -1 10.1000 69.8000 TC 45 10.0092 70.2593 3 10 281
1908299N10074 1908 49 NI AS NOT_NAMED 1908-10-26 03:00:00 TS 10.1500 69.5287 main 647 647 _________PO___ -1 10.2000 69.2575 TC 45 10.1000 69.8000 3 10 281
1908299N10074 1908 49 NI AS NOT_NAMED 1908-10-26 06:00:00 TS 10.2464 68.9962 main 696 691 _________OP___ -1 10.3000 68.7000 TC 45 10.1928 69.2925 3 11 281
1908299N10074 1908 49 NI AS NOT_NAMED 1908-10-26 09:00:00 TS 10.3462 68.4787 main 741 737 _________PP___ -1 10.3999 68.1925 TC 45 10.2924 68.7650 3 10 281
1908299N10074 1908 49 NI AS NOT_NAMED 1908-10-26 12:00:00 TS 10.4479 67.9650 main 788 788 _________OP___ -1 10.5000 67.7000 TC 45 10.3959 68.2299 3 10 281
1908299N10074 1908 49 NI AS NOT_NAMED 1908-10-26 15:00:00 TS 10.5500 67.4500 main 846 843 _________PO___ -1 10.5999 67.2000 TC 45 10.5000 67.7000 3 10 280
1908299N10074 1908 49 NI AS NOT_NAMED 1908-10-26 18:00:00 TS 10.6272 66.9702 main 884 884 _________OP___ -1 10.7000 66.7000 TC 45 10.5544 67.2405 3 9 279
1908299N10074 1908 49 NI AS NOT_NAMED 1908-10-26 21:00:00 TS 10.6929 66.5164 main 934 934 _________PP___ -1 10.7696 66.2521 TC 45 10.6161 66.7807 3 10 281
1908299N10074 1908 49 NI AS NOT_NAMED 1908-10-27 00:00:00 TS 10.8099 65.9904 main 982 982 _________OP___ -1 10.9000 65.7000 TC 45 10.7198 66.2807 3 12 285
1908299N10074 1908 49 NI AS NOT_NAMED 1908-10-27 03:00:00 TS 11.0239 65.2937 main 1038 1038 _________PO___ -1 11.1478 64.8875 TC 45 10.9000 65.7000 3 16 289
1908299N10074 1908 49 NI AS NOT_NAMED 1908-10-27 06:00:00 TS 11.3323 64.4710 main 1098 1005 _________OP___ -1 11.5000 64.0000 TC 45 11.1646 64.9420 3 17 293
1908299N10074 1908 49 NI AS NOT_NAMED 1908-10-27 09:00:00 TS 11.7145 63.6602 main 1005 914 _________PP___ -1 11.9198 63.2125 TC 45 11.5092 64.1079 3 18 298
1908299N10074 1908 49 NI AS NOT_NAMED 1908-10-27 12:00:00 TS 12.1620 62.8849 main 913 836 _________OP___ -1 12.4000 62.5000 TC 45 11.9240 63.2698 3 17 302
1908299N10074 1908 49 NI AS NOT_NAMED 1908-10-27 15:00:00 TS 12.6349 62.1774 main 836 772 _________PO___ -1 12.8698 61.8547 TC 45 12.4000 62.5000 3 16 308
1908299N10074 1908 49 NI AS NOT_NAMED 1908-10-27 18:00:00 TS 13.1747 61.5660 main 765 672 _________OP___ -1 13.4000 61.3000 TC 45 12.9494 61.8319 3 16 316
1908299N10074 1908 49 NI AS NOT_NAMED 1908-10-27 21:00:00 TS 13.8109 61.0159 main 672 594 _________PP___ -1 14.0725 60.7828 TC 45 13.5494 61.2490 3 16 323
1908299N10074 1908 49 NI AS NOT_NAMED 1908-10-28 00:00:00 TS 14.4249 60.5832 main 594 530 _________OP___ -1 14.7000 60.4000 TC 45 14.1497 60.7664 3 13 327
1908299N10074 1908 49 NI AS NOT_NAMED 1908-10-28 03:00:00 TS 14.8937 60.2985 main 530 490 _________PO___ -1 15.0873 60.1971 TC 45 14.7000 60.4000 3 10 332
1908299N10074 1908 49 NI AS NOT_NAMED 1908-10-28 06:00:00 TS 15.2658 60.1252 main 480 446 _________OP___ -1 15.4000 60.1000 TC 45 15.1317 60.1504 3 8 339
1908299N10074 1908 49 NI AS NOT_NAMED 1908-10-28 09:00:00 TS 15.6545 60.0029 main 436 402 _________PP___ -1 15.8000 59.9924 TC 45 15.5090 60.0133 3 8 346
1908299N10074 1908 49 NI AS NOT_NAMED 1908-10-28 12:00:00 TS 16.0285 59.9223 main 402 366 _________OP___ -1 16.2000 59.9000 TC 45 15.8569 59.9446 3 7 348
1908299N10074 1908 49 NI AS NOT_NAMED 1908-10-28 15:00:00 TS 16.3750 59.8462 main 359 333 _________PO___ -1 16.5500 59.7925 TC 41 16.2000 59.9000 3 7 349
1908299N10074 1908 49 NI AS NOT_NAMED 1908-10-28 18:00:00 TS 16.7045 59.7819 main 333 292 _________OP___ -1 16.9000 59.7000 TC 37 16.5578 59.8433 3 7 350
1908299N10074 1908 49 NI AS NOT_NAMED 1908-10-28 21:00:00 TS 17.0733 59.7186 main 292 268 _________PP___ -1 17.2875 59.6400 TC 33 16.9304 59.7710 3 8 351
1908299N10074 1908 49 NI AS NOT_NAMED 1908-10-29 00:00:00 TS 17.4419 59.6588 main 268 239 _________OP___ -1 17.7000 59.6000 TC 30 17.3128 59.6882 3 6 350
1908299N10074 1908 49 NI AS NOT_NAMED 1908-10-29 03:00:00 NR 17.7000 59.6000 main 239 __________O___ -1 TC 17.7000 59.6000 1 5 347

IBTrACS Databaseについて

本データベースは、米国NOAAが公開する1842年以降の世界の熱帯低気圧のベストトラックデータアーカイブInternational Best Track Archive for Climate Stewardship (IBTrACS)を、ウェブで閲覧しやすい形式に変換したものです。

最終更新日:2021-12-01